Time;durP1;ratioP1;P1;durP2;ratioP2;P2;SDS_P1;SDS_P2;PMS_P1;PMS_P2;Temp;Humidity;BMP_temperature;BMP_pressure;BME280_temperature;BME280_humidity;BME280_pressure;Samples;Min_cycle;Max_cycle;Signal;HPM_P1;HPM_P2
2023/10/18 00:02:16;;;;;;;21.15;12.90;;;;;;;;;;5051122;28;20037;-57
2023/10/18 00:04:44;;;;;;;22.77;13.10;;;;;;;;;;5050702;28;20049;-57
2023/10/18 00:07:12;;;;;;;19.90;11.90;;;;;;;;;;5050597;28;20086;-57
2023/10/18 00:09:50;;;;;;;20.90;12.57;;;;;;;;;;5051014;28;20139;-57
2023/10/18 00:12:18;;;;;;;22.10;14.02;;;;;;;;;;5050975;28;20052;-56
2023/10/18 00:14:47;;;;;;;25.90;13.15;;;;;;;;;;5050436;28;20041;-56
2023/10/18 00:17:13;;;;;;;24.98;13.73;;;;;;;;;;5050711;28;20553;-58
2023/10/18 00:19:40;;;;;;;25.52;13.93;;;;;;;;;;5050959;28;20044;-54
2023/10/18 00:22:09;;;;;;;24.88;13.82;;;;;;;;;;5050566;28;20475;-56
2023/10/18 00:24:35;;;;;;;28.05;13.75;;;;;;;;;;5050788;28;20045;-56
2023/10/18 00:27:03;;;;;;;27.95;14.80;;;;;;;;;;5032526;28;20064;-56
2023/10/18 00:29:30;;;;;;;25.15;14.07;;;;;;;;;;5050363;28;20048;-57
2023/10/18 00:31:56;;;;;;;29.73;15.15;;;;;;;;;;5050682;28;20470;-58
2023/10/18 00:34:22;;;;;;;27.05;14.65;;;;;;;;;;5050731;28;20474;-56
2023/10/18 00:36:48;;;;;;;31.17;15.35;;;;;;;;;;5032419;28;20076;-57
2023/10/18 00:39:21;;;;;;;26.50;14.90;;;;;;;;;;5050388;28;20048;-57
2023/10/18 00:41:49;;;;;;;;;;;;;;;;;;5033395;28;20670;-56
2023/10/18 00:44:15;;;;;;;27.92;15.60;;;;;;;;;;5053964;28;19920;-57
2023/10/18 00:46:41;;;;;;;28.48;15.43;;;;;;;;;;5036223;28;20119;-56
2023/10/18 00:49:16;;;;;;;27.67;15.88;;;;;;;;;;5054390;28;20065;-57
2023/10/18 00:51:46;;;;;;;28.75;16.30;;;;;;;;;;5053758;28;20041;-57
2023/10/18 00:54:12;;;;;;;30.13;15.77;;;;;;;;;;5053865;28;20060;-58
2023/10/18 00:56:50;;;;;;;32.38;17.13;;;;;;;;;;5054119;28;20403;-56
2023/10/18 00:59:26;;;;;;;26.10;15.93;;;;;;;;;;5053783;28;20045;-56
2023/10/18 01:02:03;;;;;;;32.05;16.77;;;;;;;;;;5054132;28;20052;-58
2023/10/18 01:04:34;;;;;;;32.22;16.95;;;;;;;;;;5053890;28;20164;-56
2023/10/18 01:07:11;;;;;;;29.75;16.65;;;;;;;;;;5053371;28;20704;-56
2023/10/18 01:09:37;;;;;;;33.85;18.13;;;;;;;;;;5053840;28;20052;-56
2023/10/18 01:12:04;;;;;;;32.17;17.58;;;;;;;;;;5053789;28;20056;-55
2023/10/18 01:14:31;;;;;;;33.85;18.25;;;;;;;;;;5053407;28;20095;-57
2023/10/18 01:16:58;;;;;;;31.75;18.63;;;;;;;;;;5053581;28;20051;-56
2023/10/18 01:19:24;;;;;;;30.45;17.08;;;;;;;;;;5053322;28;20047;-57
2023/10/18 01:21:51;;;;;;;34.53;18.83;;;;;;;;;;5053094;28;20048;-55
2023/10/18 01:24:18;;;;;;;33.88;19.25;;;;;;;;;;5035437;28;20569;-56
2023/10/18 01:26:45;;;;;;;32.22;18.30;;;;;;;;;;5035541;28;20045;-57
2023/10/18 01:29:11;;;;;;;31.42;18.25;;;;;;;;;;5053268;28;20037;-56
2023/10/18 01:31:45;;;;;;;34.60;19.00;;;;;;;;;;5053152;28;20045;-57
2023/10/18 01:34:11;;;;;;;35.60;18.58;;;;;;;;;;5053518;28;20091;-56
2023/10/18 01:36:41;;;;;;;33.78;19.30;;;;;;;;;;5052937;28;20155;-57
2023/10/18 01:39:18;;;;;;;32.20;18.52;;;;;;;;;;5053387;28;20049;-57
2023/10/18 01:41:44;;;;;;;36.33;20.10;;;;;;;;;;5053278;28;20388;-54
2023/10/18 01:44:11;;;;;;;37.33;20.10;;;;;;;;;;5052888;28;20049;-57
2023/10/18 01:46:46;;;;;;;35.17;19.40;;;;;;;;;;5053092;28;20041;-57
2023/10/18 01:49:16;;;;;;;31.95;19.08;;;;;;;;;;5053210;28;20421;-57
2023/10/18 01:51:44;;;;;;;36.65;19.63;;;;;;;;;;5052762;28;20041;-57
2023/10/18 01:54:16;;;;;;;34.53;18.85;;;;;;;;;;5052549;28;20069;-57
2023/10/18 01:56:46;;;;;;;32.88;18.65;;;;;;;;;;5052943;28;20056;-56
2023/10/18 01:59:17;;;;;;;37.47;18.98;;;;;;;;;;5052516;28;20044;-56
2023/10/18 02:01:51;;;;;;;37.28;18.67;;;;;;;;;;5052865;28;20407;-58
2023/10/18 02:04:24;;;;;;;33.17;18.45;;;;;;;;;;5052926;28;20123;-56
2023/10/18 02:06:51;;;;;;;33.13;18.88;;;;;;;;;;5052367;28;20036;-56
2023/10/18 02:09:19;;;;;;;36.50;19.92;;;;;;;;;;5034665;28;20106;-56
2023/10/18 02:11:46;;;;;;;35.42;19.88;;;;;;;;;;5052732;28;20084;-57
2023/10/18 02:14:13;;;;;;;38.50;19.80;;;;;;;;;;5052308;28;20080;-56
2023/10/18 02:16:41;;;;;;;33.67;18.40;;;;;;;;;;5034445;28;20120;-56
2023/10/18 02:19:08;;;;;;;37.05;20.00;;;;;;;;;;5052461;28;20045;-56
2023/10/18 02:21:34;;;;;;;40.47;20.88;;;;;;;;;;5051959;28;20033;-56
2023/10/18 02:24:00;;;;;;;38.92;20.67;;;;;;;;;;5017900;28;20041;-57
2023/10/18 02:28:56;;;;;;;39.75;21.05;;;;;;;;;;5052243;28;20114;-58
2023/10/18 02:31:22;;;;;;;33.72;19.20;;;;;;;;;;5052460;28;20069;-56
2023/10/18 02:33:48;;;;;;;36.80;19.70;;;;;;;;;;5052408;28;20426;-57
2023/10/18 02:36:21;;;;;;;34.88;20.33;;;;;;;;;;5034071;28;20092;-56
2023/10/18 02:38:49;;;;;;;37.05;21.23;;;;;;;;;;5034220;28;20041;-57
2023/10/18 02:43:50;;;;;;;42.97;22.35;;;;;;;;;;5051617;28;20132;-58
2023/10/18 02:46:23;;;;;;;39.05;21.20;;;;;;;;;;5051877;28;20377;-56
2023/10/18 02:48:51;;;;;;;38.35;21.25;;;;;;;;;;5051872;28;20124;-57
2023/10/18 02:51:22;;;;;;;38.15;20.50;;;;;;;;;;5051640;28;20060;-56
2023/10/18 02:53:48;;;;;;;34.75;21.50;;;;;;;;;;5051771;28;20065;-57
2023/10/18 02:56:17;;;;;;;38.20;21.13;;;;;;;;;;5051529;28;20198;-54
2023/10/18 02:58:46;;;;;;;42.17;21.55;;;;;;;;;;5051191;28;20044;-58
2023/10/18 03:01:14;;;;;;;36.03;20.70;;;;;;;;;;5051849;28;20042;-57
2023/10/18 03:03:46;;;;;;;38.45;20.70;;;;;;;;;;5033826;28;20051;-56
2023/10/18 03:06:15;;;;;;;39.88;20.67;;;;;;;;;;5051094;28;20066;-54
2023/10/18 03:08:47;;;;;;;36.88;19.77;;;;;;;;;;5051811;28;20033;-57
2023/10/18 03:11:13;;;;;;;;;;;;;;;;;;5033810;28;20048;-57
2023/10/18 03:13:39;;;;;;;35.95;20.52;;;;;;;;;;5051645;28;20314;-55
2023/10/18 03:16:06;;;;;;;36.53;20.23;;;;;;;;;;5051152;28;20044;-57
2023/10/18 03:18:34;;;;;;;35.53;19.77;;;;;;;;;;5051283;28;20120;-57
2023/10/18 03:21:04;;;;;;;38.00;21.67;;;;;;;;;;5051396;28;20521;-57
2023/10/18 03:23:31;;;;;;;37.45;20.35;;;;;;;;;;5051383;28;20053;-56
2023/10/18 03:26:01;;;;;;;38.85;21.60;;;;;;;;;;5050868;28;20045;-57
2023/10/18 03:28:34;;;;;;;34.38;19.05;;;;;;;;;;5051398;28;20049;-57
2023/10/18 03:31:20;;;;;;;37.97;20.45;;;;;;;;;;5051350;28;20047;-56
2023/10/18 03:33:46;;;;;;;39.30;20.80;;;;;;;;;;5051022;28;20049;-57
2023/10/18 03:36:20;;;;;;;38.03;20.92;;;;;;;;;;5051245;28;20059;-56
2023/10/18 03:38:53;;;;;;;36.53;19.90;;;;;;;;;;5050904;28;20102;-58
2023/10/18 03:41:19;;;;;;;36.92;19.92;;;;;;;;;;5050514;28;20049;-58
2023/10/18 03:43:48;;;;;;;33.50;19.35;;;;;;;;;;5051268;28;20386;-57
2023/10/18 03:46:29;;;;;;;36.45;20.95;;;;;;;;;;5051115;28;20041;-57
2023/10/18 03:49:01;;;;;;;31.85;18.95;;;;;;;;;;5050835;28;20052;-57
2023/10/18 03:51:30;;;;;;;;;;;;;;;;;;5051586;28;20045;-56
2023/10/18 03:53:56;;;;;;;38.85;21.13;;;;;;;;;;5050663;28;19927;-57
2023/10/18 03:56:22;;;;;;;35.60;19.67;;;;;;;;;;5050565;28;20132;-58
2023/10/18 03:59:01;;;;;;;36.00;20.30;;;;;;;;;;5050977;28;20449;-56
2023/10/18 04:01:28;;;;;;;31.73;19.75;;;;;;;;;;5050894;28;20055;-57
2023/10/18 04:03:56;;;;;;;34.13;20.48;;;;;;;;;;5050627;28;20124;-57
2023/10/18 04:06:27;;;;;;;34.75;20.23;;;;;;;;;;5050634;28;20073;-57
2023/10/18 04:08:58;;;;;;;33.20;19.67;;;;;;;;;;5051011;28;20047;-56
2023/10/18 04:11:26;;;;;;;33.90;21.15;;;;;;;;;;5050541;28;20041;-57
2023/10/18 04:13:52;;;;;;;35.20;19.65;;;;;;;;;;5050499;28;20049;-57
2023/10/18 04:16:25;;;;;;;35.45;20.27;;;;;;;;;;5050528;28;20132;-57
2023/10/18 04:18:52;;;;;;;43.13;21.25;;;;;;;;;;5054206;28;20108;-56
2023/10/18 04:21:25;;;;;;;36.08;20.65;;;;;;;;;;5054528;28;20048;-55
2023/10/18 04:23:54;;;;;;;37.47;21.05;;;;;;;;;;5054635;28;20045;-57
2023/10/18 04:26:21;;;;;;;33.20;20.02;;;;;;;;;;5054150;28;20045;-55
2023/10/18 04:28:48;;;;;;;36.28;20.25;;;;;;;;;;5054740;28;20040;-57
2023/10/18 04:31:15;;;;;;;31.92;19.85;;;;;;;;;;5054437;28;20552;-56
2023/10/18 04:33:42;;;;;;;32.53;20.88;;;;;;;;;;5054038;28;20438;-58
2023/10/18 04:36:12;;;;;;;35.38;20.88;;;;;;;;;;5054471;28;20120;-58
2023/10/18 04:38:46;;;;;;;38.72;21.35;;;;;;;;;;5054376;28;20047;-58
2023/10/18 04:41:31;;;;;;;32.65;20.48;;;;;;;;;;5053746;28;20098;-56
2023/10/18 04:44:11;;;;;;;36.25;21.25;;;;;;;;;;5039058;28;20059;-57
2023/10/18 04:46:37;;;;;;;38.22;20.00;;;;;;;;;;5053982;28;20040;-57
2023/10/18 04:54:11;;;;;;;32.40;19.50;;;;;;;;;;5053794;28;20011;-58
2023/10/18 04:56:38;;;;;;;34.13;19.90;;;;;;;;;;5053608;28;20303;-58
2023/10/18 05:04:24;;;;;;;33.85;20.50;;;;;;;;;;5053574;28;20047;-57
2023/10/18 05:06:55;;;;;;;32.97;20.17;;;;;;;;;;5053936;28;20041;-57
2023/10/18 05:09:31;;;;;;;31.65;19.92;;;;;;;;;;5036098;28;20102;-56
2023/10/18 05:12:07;;;;;;;35.05;20.85;;;;;;;;;;5053702;28;20060;-57
2023/10/18 05:14:42;;;;;;;31.45;19.00;;;;;;;;;;5053818;28;20521;-55
2023/10/18 05:17:18;;;;;;;37.38;21.20;;;;;;;;;;5053293;28;20044;-57
2023/10/18 05:19:45;;;;;;;34.95;21.40;;;;;;;;;;5053519;28;20053;-57
2023/10/18 05:22:23;;;;;;;32.65;19.50;;;;;;;;;;5053630;28;20503;-56
2023/10/18 05:27:45;;;;;;;32.53;19.98;;;;;;;;;;5052838;28;20138;-56
2023/10/18 05:30:15;;;;;;;34.50;21.30;;;;;;;;;;5053606;28;20048;-56
2023/10/18 05:33:03;;;;;;;35.47;20.33;;;;;;;;;;5053202;28;20045;-57
2023/10/18 05:35:35;;;;;;;38.88;21.30;;;;;;;;;;5053398;28;20498;-57
2023/10/18 05:40:56;;;;;;;29.58;19.90;;;;;;;;;;5004622;28;20049;-57
2023/10/18 05:43:22;;;;;;;31.23;19.98;;;;;;;;;;5053164;28;20072;-56
2023/10/18 05:45:49;;;;;;;35.65;19.77;;;;;;;;;;5053046;28;20049;-56
2023/10/18 05:48:22;;;;;;;34.65;21.08;;;;;;;;;;5052603;28;20044;-56
2023/10/18 05:50:49;;;;;;;31.75;20.20;;;;;;;;;;5053136;28;20502;-56
2023/10/18 05:53:18;;;;;;;31.67;21.15;;;;;;;;;;5052683;28;20069;-57
2023/10/18 05:55:54;;;;;;;34.72;21.27;;;;;;;;;;5052648;28;20519;-56
2023/10/18 05:58:26;;;;;;;30.85;20.02;;;;;;;;;;5052929;28;20374;-56
2023/10/18 06:00:58;;;;;;;33.08;19.55;;;;;;;;;;5053055;28;20049;-57
2023/10/18 06:03:27;;;;;;;;;;;;;;;;;;5052896;28;20045;-57
2023/10/18 06:05:57;;;;;;;32.15;19.70;;;;;;;;;;5052598;28;19924;-57
2023/10/18 06:08:24;;;;;;;31.05;19.88;;;;;;;;;;5052854;28;20608;-57
2023/10/18 06:11:00;;;;;;;35.28;20.98;;;;;;;;;;5052365;28;20040;-57
2023/10/18 06:13:27;;;;;;;32.60;21.15;;;;;;;;;;5052660;28;20484;-57
2023/10/18 06:15:58;;;;;;;32.55;21.10;;;;;;;;;;5052395;28;20119;-57
2023/10/18 06:18:30;;;;;;;29.20;19.17;;;;;;;;;;5034216;28;20045;-56
2023/10/18 06:20:59;;;;;;;31.42;20.17;;;;;;;;;;5052552;28;20160;-56
2023/10/18 06:25:57;;;;;;;31.27;19.80;;;;;;;;;;5051991;28;20098;-56
2023/10/18 06:28:30;;;;;;;34.70;20.73;;;;;;;;;;5052044;28;20040;-57
2023/10/18 06:30:57;;;;;;;32.97;20.27;;;;;;;;;;5042615;28;20041;-60
2023/10/18 06:33:23;;;;;;;33.17;20.50;;;;;;;;;;5005637;28;20077;-60
2023/10/18 06:35:52;;;;;;;32.20;20.42;;;;;;;;;;5046358;28;20446;-61
2023/10/18 06:38:25;;;;;;;30.63;18.90;;;;;;;;;;5051149;28;20532;-59
2023/10/18 06:41:00;;;;;;;32.90;19.98;;;;;;;;;;5050228;28;20044;-61
2023/10/18 06:43:26;;;;;;;32.65;20.58;;;;;;;;;;5051167;28;20051;-59
2023/10/18 06:45:53;;;;;;;33.22;21.42;;;;;;;;;;5051108;28;20637;-60
2023/10/18 06:48:22;;;;;;;32.80;20.40;;;;;;;;;;5050926;28;20622;-58
2023/10/18 06:50:48;;;;;;;32.72;19.73;;;;;;;;;;5050784;28;20553;-57
2023/10/18 06:53:15;;;;;;;30.52;19.40;;;;;;;;;;5050612;28;20041;-60
2023/10/18 06:55:44;;;;;;;29.60;19.30;;;;;;;;;;5050170;28;20080;-60
2023/10/18 07:01:00;;;;;;;35.80;20.70;;;;;;;;;;5044678;28;20556;-60
2023/10/18 07:03:33;;;;;;;29.90;18.85;;;;;;;;;;5027221;28;20045;-59
2023/10/18 07:06:18;;;;;;;30.35;18.38;;;;;;;;;;5049195;28;20041;-60
2023/10/18 07:08:49;;;;;;;32.90;18.90;;;;;;;;;;5048749;28;20127;-60
2023/10/18 07:11:19;;;;;;;31.92;19.98;;;;;;;;;;5049481;28;20047;-60
2023/10/18 07:13:50;;;;;;;30.92;18.98;;;;;;;;;;5041574;28;20037;-60
2023/10/18 07:21:43;;;;;;;30.67;19.55;;;;;;;;;;5046485;28;20045;-61
2023/10/18 07:24:10;;;;;;;30.50;17.90;;;;;;;;;;5047714;28;20044;-59
2023/10/18 07:26:37;;;;;;;28.65;18.45;;;;;;;;;;5032542;28;20048;-59
2023/10/18 07:29:09;;;;;;;31.17;19.35;;;;;;;;;;5048385;28;20116;-60
2023/10/18 07:31:38;;;;;;;30.33;19.85;;;;;;;;;;5049530;28;20049;-59
2023/10/18 07:34:07;;;;;;;28.38;18.42;;;;;;;;;;5040698;28;20122;-59
2023/10/18 07:36:37;;;;;;;28.10;17.52;;;;;;;;;;5049558;28;20059;-59
2023/10/18 07:39:04;;;;;;;30.23;18.75;;;;;;;;;;5049626;28;20499;-57
2023/10/18 07:41:34;;;;;;;27.38;17.77;;;;;;;;;;5047247;28;20048;-60
2023/10/18 07:44:01;;;;;;;30.55;20.02;;;;;;;;;;5046985;28;20059;-61
2023/10/18 07:46:28;;;;;;;34.15;19.20;;;;;;;;;;5049904;28;20043;-60
2023/10/18 07:49:03;;;;;;;32.33;18.02;;;;;;;;;;5048186;28;20051;-59
2023/10/18 07:51:31;;;;;;;30.73;18.60;;;;;;;;;;5033464;28;20368;-60
2023/10/18 07:53:59;;;;;;;32.47;17.50;;;;;;;;;;5048778;28;20096;-59
2023/10/18 07:56:32;;;;;;;25.08;16.85;;;;;;;;;;5049932;28;20537;-59
2023/10/18 08:01:47;;;;;;;27.77;17.45;;;;;;;;;;5045847;28;20390;-57
2023/10/18 08:04:17;;;;;;;27.90;16.95;;;;;;;;;;5043775;28;20171;-59
2023/10/18 08:06:44;;;;;;;28.50;17.27;;;;;;;;;;5050116;28;20041;-61
2023/10/18 08:09:12;;;;;;;24.92;16.17;;;;;;;;;;5046973;28;20041;-61
2023/10/18 08:11:38;;;;;;;25.13;16.55;;;;;;;;;;5032146;28;20041;-60
2023/10/18 08:14:10;;;;;;;27.42;16.92;;;;;;;;;;5049457;28;20090;-60
2023/10/18 08:16:51;;;;;;;26.77;16.95;;;;;;;;;;5049332;28;20099;-60
2023/10/18 08:19:22;;;;;;;24.85;16.48;;;;;;;;;;5049859;28;20048;-60
2023/10/18 08:22:09;;;;;;;28.13;16.20;;;;;;;;;;5042149;28;20071;-58
2023/10/18 08:24:35;;;;;;;22.77;15.45;;;;;;;;;;5039720;28;20304;-59
2023/10/18 08:27:11;;;;;;;25.30;16.52;;;;;;;;;;5049509;28;20030;-60
2023/10/18 08:29:37;;;;;;;24.00;15.80;;;;;;;;;;5046301;28;20047;-59
2023/10/18 08:32:29;;;;;;;24.85;15.32;;;;;;;;;;5045210;28;20030;-60
2023/10/18 08:34:53;;;;;;;25.73;15.63;;;;;;;;;;5043226;28;20499;-58
2023/10/18 08:37:19;;;;;;;23.58;14.85;;;;;;;;;;5044021;28;20102;-60
2023/10/18 08:39:55;;;;;;;22.17;14.85;;;;;;;;;;5049532;28;20072;-60
2023/10/18 08:42:39;;;;;;;22.95;14.95;;;;;;;;;;5048854;28;20448;-59
2023/10/18 08:45:09;;;;;;;22.02;14.32;;;;;;;;;;5048978;28;20045;-59
2023/10/18 08:47:39;;;;;;;26.58;15.95;;;;;;;;;;5049369;28;20446;-60
2023/10/18 08:50:06;;;;;;;23.88;14.85;;;;;;;;;;5049406;28;20048;-58
2023/10/18 08:52:35;;;;;;;22.25;14.65;;;;;;;;;;5048605;28;20037;-59
2023/10/18 08:55:19;;;;;;;22.95;14.38;;;;;;;;;;5048919;28;20048;-59
2023/10/18 08:57:46;;;;;;;20.75;13.63;;;;;;;;;;5048921;28;20051;-59
2023/10/18 09:01:02;;;;;;;21.88;14.18;;;;;;;;;;5048946;28;20123;-58
2023/10/18 09:03:03;;;;;;;23.65;14.45;;;;;;;;;;5049552;28;20072;-59
2023/10/18 09:05:30;;;;;;;22.27;14.13;;;;;;;;;;5045167;28;20040;-59
2023/10/18 09:08:05;;;;;;;21.95;13.77;;;;;;;;;;5035280;28;20132;-59
2023/10/18 09:18:25;;;;;;;19.73;12.98;;;;;;;;;;5051390;28;20052;-61
2023/10/18 09:20:55;;;;;;;18.20;12.95;;;;;;;;;;5051355;28;20085;-61
2023/10/18 09:23:24;;;;;;;20.67;12.98;;;;;;;;;;5032134;28;20120;-61
2023/10/18 09:25:50;;;;;;;21.05;13.70;;;;;;;;;;5050299;28;20045;-59
2023/10/18 09:28:25;;;;;;;23.20;12.98;;;;;;;;;;5052354;28;20071;-60
2023/10/18 09:31:00;;;;;;;20.45;12.82;;;;;;;;;;5047473;28;20040;-59
2023/10/18 09:33:33;;;;;;;18.88;12.25;;;;;;;;;;5047498;28;20480;-58
2023/10/18 09:36:02;;;;;;;19.15;12.93;;;;;;;;;;5049518;28;20495;-60
2023/10/18 09:38:41;;;;;;;16.95;11.77;;;;;;;;;;5043799;28;20091;-60
2023/10/18 09:41:07;;;;;;;20.27;11.55;;;;;;;;;;5044212;28;20056;-61
2023/10/18 09:43:36;;;;;;;17.67;11.77;;;;;;;;;;5063180;28;20139;-61
2023/10/18 09:46:03;;;;;;;20.95;12.30;;;;;;;;;;5044772;28;20029;-60
2023/10/18 09:48:33;;;;;;;19.38;12.25;;;;;;;;;;5059316;28;20041;-60
2023/10/18 09:51:08;;;;;;;16.38;12.15;;;;;;;;;;5049867;28;20037;-60
2023/10/18 09:53:36;;;;;;;16.05;11.50;;;;;;;;;;5050797;28;20369;-60
2023/10/18 09:56:03;;;;;;;18.08;11.77;;;;;;;;;;5051364;28;20055;-60
2023/10/18 09:58:33;;;;;;;19.98;11.77;;;;;;;;;;5048453;28;20041;-59
2023/10/18 10:01:13;;;;;;;17.60;11.57;;;;;;;;;;5032567;28;20049;-61
2023/10/18 10:03:41;;;;;;;18.17;12.05;;;;;;;;;;5033977;28;20047;-59
2023/10/18 10:06:08;;;;;;;18.40;12.10;;;;;;;;;;5050891;28;20083;-60
2023/10/18 10:08:36;;;;;;;17.65;12.02;;;;;;;;;;5037951;28;20444;-59
2023/10/18 10:11:14;;;;;;;17.13;11.63;;;;;;;;;;5051897;28;20041;-60
2023/10/18 10:13:42;;;;;;;16.73;10.98;;;;;;;;;;5050868;28;20080;-60
2023/10/18 10:16:09;;;;;;;16.45;10.73;;;;;;;;;;5051202;28;20428;-59
2023/10/18 10:18:39;;;;;;;19.05;13.43;;;;;;;;;;5038336;28;20048;-59
2023/10/18 10:21:10;;;;;;;17.33;11.77;;;;;;;;;;5044323;28;20048;-61
2023/10/18 10:23:39;;;;;;;18.88;11.98;;;;;;;;;;5071790;28;20483;-59
2023/10/18 10:26:22;;;;;;;19.90;12.13;;;;;;;;;;5051757;28;20041;-60
2023/10/18 10:31:50;;;;;;;16.85;11.38;;;;;;;;;;5045976;28;20049;-61
2023/10/18 10:34:24;;;;;;;15.77;10.65;;;;;;;;;;5050777;28;20049;-61
2023/10/18 10:36:50;;;;;;;16.58;11.38;;;;;;;;;;5050365;28;20048;-59
2023/10/18 10:39:30;;;;;;;17.27;10.85;;;;;;;;;;5065282;28;20533;-62
2023/10/18 10:42:08;;;;;;;17.40;11.45;;;;;;;;;;5046627;28;20491;-60
2023/10/18 10:44:54;;;;;;;16.85;11.57;;;;;;;;;;5050421;28;20124;-60
2023/10/18 10:47:29;;;;;;;15.95;10.90;;;;;;;;;;5032235;28;20083;-61
2023/10/18 10:49:58;;;;;;;17.95;11.30;;;;;;;;;;5047146;28;20671;-56
2023/10/18 10:52:29;;;;;;;13.63;10.13;;;;;;;;;;5050376;28;20052;-59
2023/10/18 10:55:15;;;;;;;17.67;10.60;;;;;;;;;;5035072;28;20084;-58
2023/10/18 10:57:43;;;;;;;17.05;9.48;;;;;;;;;;5047933;28;20064;-58
2023/10/18 11:02:54;;;;;;;16.15;10.20;;;;;;;;;;5041647;28;20049;-59
2023/10/18 11:05:24;;;;;;;14.38;9.35;;;;;;;;;;5045234;28;20027;-59
2023/10/18 11:07:53;;;;;;;15.60;10.65;;;;;;;;;;5054084;28;20044;-59
2023/10/18 11:10:19;;;;;;;13.07;9.40;;;;;;;;;;5051688;28;20041;-58
2023/10/18 11:12:45;;;;;;;13.63;9.93;;;;;;;;;;5050756;28;20499;-59
2023/10/18 11:15:17;;;;;;;16.48;9.93;;;;;;;;;;5050690;28;20514;-59
2023/10/18 11:17:45;;;;;;;17.17;9.88;;;;;;;;;;5050434;28;20037;-59
2023/10/18 11:20:19;;;;;;;15.98;9.40;;;;;;;;;;5050273;28;20064;-59
2023/10/18 11:22:47;;;;;;;12.02;8.82;;;;;;;;;;5049250;28;20479;-59
2023/10/18 11:25:19;;;;;;;13.95;9.00;;;;;;;;;;5050198;28;20041;-58
2023/10/18 11:27:45;;;;;;;14.20;8.68;;;;;;;;;;5050178;28;20041;-58
2023/10/18 11:30:28;;;;;;;12.10;8.43;;;;;;;;;;5050330;28;20386;-59
2023/10/18 11:32:55;;;;;;;13.18;8.88;;;;;;;;;;5049788;28;20051;-58
2023/10/18 11:38:24;;;;;;;15.38;8.52;;;;;;;;;;4987593;28;20042;-59
2023/10/18 11:40:50;;;;;;;13.45;8.93;;;;;;;;;;5029494;28;20040;-59
2023/10/18 11:43:26;;;;;;;11.45;8.07;;;;;;;;;;5050250;28;20435;-59
2023/10/18 11:46:05;;;;;;;15.73;8.63;;;;;;;;;;5050232;28;20120;-59
2023/10/18 11:48:35;;;;;;;14.75;8.48;;;;;;;;;;5050298;28;20371;-59
2023/10/18 11:51:02;;;;;;;13.20;8.30;;;;;;;;;;5049694;28;20052;-60
2023/10/18 11:53:28;;;;;;;12.02;8.52;;;;;;;;;;5042985;28;20068;-59
2023/10/18 11:55:58;;;;;;;18.10;11.73;;;;;;;;;;5050293;28;20072;-59
2023/10/18 11:58:31;;;;;;;14.32;8.57;;;;;;;;;;5037605;28;20094;-59
2023/10/18 12:01:01;;;;;;;15.02;10.23;;;;;;;;;;5039996;28;20048;-59
2023/10/18 12:03:33;;;;;;;15.68;10.95;;;;;;;;;;5033139;28;20042;-59
2023/10/18 12:06:00;;;;;;;14.40;8.95;;;;;;;;;;5043953;28;20029;-60
2023/10/18 12:08:30;;;;;;;17.13;11.95;;;;;;;;;;5044762;28;20476;-58
2023/10/18 12:11:08;;;;;;;12.07;8.60;;;;;;;;;;5040424;28;20615;-59
2023/10/18 12:13:34;;;;;;;12.88;9.20;;;;;;;;;;5055723;28;20052;-58
2023/10/18 12:16:00;;;;;;;11.85;9.27;;;;;;;;;;5049069;28;20583;-58
2023/10/18 12:18:29;;;;;;;11.45;7.75;;;;;;;;;;5047252;28;20045;-58
2023/10/18 12:20:56;;;;;;;10.50;7.40;;;;;;;;;;5048767;28;20056;-59
2023/10/18 12:23:22;;;;;;;12.73;7.82;;;;;;;;;;5049952;28;20451;-59
2023/10/18 12:25:49;;;;;;;9.55;7.82;;;;;;;;;;5049719;28;20650;-59
2023/10/18 12:28:27;;;;;;;12.98;7.43;;;;;;;;;;5049718;28;20062;-59
2023/10/18 12:30:55;;;;;;;10.63;8.07;;;;;;;;;;5049616;28;20049;-59
2023/10/18 12:33:27;;;;;;;12.20;7.53;;;;;;;;;;5049348;28;20124;-60
2023/10/18 12:35:59;;;;;;;11.00;7.30;;;;;;;;;;5047270;28;20072;-60
2023/10/18 12:38:32;;;;;;;9.82;7.03;;;;;;;;;;5046965;28;20045;-59
2023/10/18 12:41:03;;;;;;;11.35;7.47;;;;;;;;;;5040613;28;20084;-59
2023/10/18 12:43:32;;;;;;;10.65;7.65;;;;;;;;;;5053938;28;20049;-59
2023/10/18 12:46:00;;;;;;;13.38;7.82;;;;;;;;;;5053560;28;20045;-59
2023/10/18 12:48:27;;;;;;;11.02;7.93;;;;;;;;;;5039187;28;20456;-59
2023/10/18 12:50:54;;;;;;;15.70;8.27;;;;;;;;;;5049711;28;20780;-60
2023/10/18 12:58:47;;;;;;;12.23;8.15;;;;;;;;;;5052646;28;20049;-59
2023/10/18 13:01:14;;;;;;;11.48;8.60;;;;;;;;;;5041476;28;20048;-59
2023/10/18 13:03:56;;;;;;;10.02;7.95;;;;;;;;;;5051321;28;20048;-58
2023/10/18 13:06:30;;;;;;;12.30;8.63;;;;;;;;;;5052679;28;20472;-59
2023/10/18 13:09:05;;;;;;;13.05;8.25;;;;;;;;;;5046055;28;20076;-58
2023/10/18 13:14:54;;;;;;;13.75;8.32;;;;;;;;;;5047395;28;20075;-59
2023/10/18 13:17:03;;;;;;;14.23;8.57;;;;;;;;;;5036303;28;20503;-59
2023/10/18 13:19:30;;;;;;;13.02;7.93;;;;;;;;;;5050720;28;20049;-59
2023/10/18 13:21:56;;;;;;;10.80;7.63;;;;;;;;;;5052867;28;20052;-59
2023/10/18 13:26:52;;;;;;;11.27;8.32;;;;;;;;;;5046386;28;20080;-62
2023/10/18 13:31:47;;;;;;;13.07;8.60;;;;;;;;;;5046930;28;20068;-59
2023/10/18 13:34:19;;;;;;;14.32;9.60;;;;;;;;;;5052275;28;20041;-59
2023/10/18 13:36:48;;;;;;;14.23;10.10;;;;;;;;;;5043575;28;20577;-58
2023/10/18 13:39:16;;;;;;;15.40;9.18;;;;;;;;;;5049080;28;20033;-59
2023/10/18 13:41:46;;;;;;;13.88;9.38;;;;;;;;;;5047730;28;20047;-58
2023/10/18 13:44:19;;;;;;;14.65;8.70;;;;;;;;;;5048606;28;20136;-59
2023/10/18 13:46:52;;;;;;;14.52;9.68;;;;;;;;;;5055572;28;20072;-59
2023/10/18 13:49:18;;;;;;;16.52;10.07;;;;;;;;;;5045461;28;20724;-59
2023/10/18 13:51:48;;;;;;;15.35;8.85;;;;;;;;;;5056185;28;20056;-59
2023/10/18 13:54:14;;;;;;;15.85;9.00;;;;;;;;;;5051961;28;20065;-59
2023/10/18 13:56:41;;;;;;;15.13;9.07;;;;;;;;;;5051825;28;20114;-59
2023/10/18 13:59:08;;;;;;;12.27;8.73;;;;;;;;;;5044118;28;20124;-59
2023/10/18 14:01:34;;;;;;;16.92;9.20;;;;;;;;;;5039814;28;20045;-59
2023/10/18 14:04:01;;;;;;;13.60;8.95;;;;;;;;;;5045260;28;20045;-59
2023/10/18 14:06:30;;;;;;;13.13;8.40;;;;;;;;;;5038432;28;20586;-59
2023/10/18 14:08:57;;;;;;;14.50;8.20;;;;;;;;;;5027116;28;20148;-59
2023/10/18 14:11:23;;;;;;;13.27;8.93;;;;;;;;;;5052010;28;20391;-59
2023/10/18 14:13:49;;;;;;;15.02;9.32;;;;;;;;;;5052539;28;20087;-59
2023/10/18 14:16:19;;;;;;;18.33;9.40;;;;;;;;;;5051395;28;20044;-58
2023/10/18 14:18:47;;;;;;;18.58;9.45;;;;;;;;;;5051670;28;20127;-58
2023/10/18 14:21:13;;;;;;;15.30;9.25;;;;;;;;;;5052052;28;20037;-59
2023/10/18 14:23:44;;;;;;;14.30;9.13;;;;;;;;;;5048405;28;20045;-57
2023/10/18 14:26:11;;;;;;;16.10;9.50;;;;;;;;;;5051677;28;20565;-58
2023/10/18 14:28:37;;;;;;;16.50;9.25;;;;;;;;;;5051928;28;20278;-59
2023/10/18 14:31:03;;;;;;;16.17;9.48;;;;;;;;;;5051993;28;20375;-58
2023/10/18 14:33:30;;;;;;;17.80;9.38;;;;;;;;;;5052062;28;20041;-59
2023/10/18 14:36:06;;;;;;;15.70;9.63;;;;;;;;;;5052207;28;20045;-58
2023/10/18 14:38:34;;;;;;;15.95;9.70;;;;;;;;;;5052303;28;20667;-59
2023/10/18 14:41:00;;;;;;;15.23;8.85;;;;;;;;;;5051728;28;20469;-59
2023/10/18 14:43:26;;;;;;;14.88;9.23;;;;;;;;;;5051925;28;20090;-59
2023/10/18 14:45:55;;;;;;;14.82;9.63;;;;;;;;;;5051843;28;20475;-58
2023/10/18 14:48:21;;;;;;;19.05;10.32;;;;;;;;;;5051769;28;20063;-57
2023/10/18 14:50:51;;;;;;;15.35;8.90;;;;;;;;;;5051733;28;20455;-58
2023/10/18 14:53:17;;;;;;;17.17;10.35;;;;;;;;;;5049590;28;20068;-57
2023/10/18 14:55:44;;;;;;;14.57;9.02;;;;;;;;;;5049541;28;20047;-57
2023/10/18 14:58:10;;;;;;;14.90;9.05;;;;;;;;;;5050093;28;20041;-58
2023/10/18 15:00:36;;;;;;;16.58;10.07;;;;;;;;;;5049675;28;20045;-58
2023/10/18 15:03:02;;;;;;;17.13;10.65;;;;;;;;;;5049955;28;20076;-59
2023/10/18 15:05:29;;;;;;;15.25;9.82;;;;;;;;;;5050321;28;20052;-58
2023/10/18 15:07:57;;;;;;;19.33;10.48;;;;;;;;;;5032355;28;20041;-59
2023/10/18 15:10:24;;;;;;;16.73;9.68;;;;;;;;;;5050005;28;20628;-58
2023/10/18 15:12:50;;;;;;;16.70;10.07;;;;;;;;;;5050477;28;20055;-59
2023/10/18 15:15:16;;;;;;;15.60;9.00;;;;;;;;;;5050086;28;20119;-59
2023/10/18 15:17:45;;;;;;;17.38;9.57;;;;;;;;;;5031546;28;20103;-58
2023/10/18 15:20:12;;;;;;;18.15;9.80;;;;;;;;;;5050431;28;20033;-58
2023/10/18 15:22:38;;;;;;;15.55;9.73;;;;;;;;;;5050160;28;20041;-58
2023/10/18 15:25:04;;;;;;;16.63;9.25;;;;;;;;;;5049507;28;20123;-57
2023/10/18 15:27:33;;;;;;;17.05;10.05;;;;;;;;;;5049972;28;20098;-57
2023/10/18 15:30:06;;;;;;;14.48;9.27;;;;;;;;;;5049940;28;20112;-58
2023/10/18 15:32:32;;;;;;;18.30;10.45;;;;;;;;;;5049198;28;20044;-57
2023/10/18 15:35:02;;;;;;;16.55;10.48;;;;;;;;;;5032018;28;20045;-59
2023/10/18 15:37:28;;;;;;;17.67;10.93;;;;;;;;;;5031897;28;20041;-59
2023/10/18 15:39:55;;;;;;;16.23;10.95;;;;;;;;;;5049481;28;20044;-59
2023/10/18 15:42:23;;;;;;;15.48;9.98;;;;;;;;;;5049708;28;20041;-58